sensor_id;sensor_type;location;lat;lon;timestamp;pressure;altitude;pressure_sealevel;temperature;humidity
17309;BME280;8772;42.804;23.426;2022-07-11T00:02:16;94657.00;;;12.86;100.00
17309;BME280;8772;42.804;23.426;2022-07-11T00:04:43;94660.00;;;12.88;100.00
17309;BME280;8772;42.804;23.426;2022-07-11T00:07:11;94662.69;;;12.88;100.00
17309;BME280;8772;42.804;23.426;2022-07-11T00:09:39;94668.19;;;12.84;100.00
17309;BME280;8772;42.804;23.426;2022-07-11T00:12:07;94671.44;;;12.76;100.00
17309;BME280;8772;42.804;23.426;2022-07-11T00:14:34;94666.59;;;12.71;100.00
17309;BME280;8772;42.804;23.426;2022-07-11T00:17:05;94673.88;;;12.70;100.00
17309;BME280;8772;42.804;23.426;2022-07-11T00:19:33;94673.63;;;12.65;100.00
17309;BME280;8772;42.804;23.426;2022-07-11T00:22:00;94669.97;;;12.59;100.00
17309;BME280;8772;42.804;23.426;2022-07-11T00:24:27;94672.41;;;12.53;100.00
17309;BME280;8772;42.804;23.426;2022-07-11T00:26:56;94675.28;;;12.46;100.00
17309;BME280;8772;42.804;23.426;2022-07-11T00:29:23;94669.06;;;12.33;100.00
17309;BME280;8772;42.804;23.426;2022-07-11T00:31:50;94674.53;;;12.30;100.00
17309;BME280;8772;42.804;23.426;2022-07-11T00:34:17;94673.84;;;12.26;100.00
17309;BME280;8772;42.804;23.426;2022-07-11T00:36:44;94682.72;;;12.23;100.00
17309;BME280;8772;42.804;23.426;2022-07-11T00:39:11;94677.09;;;12.17;100.00
17309;BME280;8772;42.804;23.426;2022-07-11T00:41:38;94679.03;;;12.17;100.00
17309;BME280;8772;42.804;23.426;2022-07-11T00:44:07;94687.75;;;12.05;100.00
17309;BME280;8772;42.804;23.426;2022-07-11T00:46:34;94688.75;;;12.11;100.00
17309;BME280;8772;42.804;23.426;2022-07-11T00:49:01;94684.28;;;12.04;100.00
17309;BME280;8772;42.804;23.426;2022-07-11T00:51:28;94682.91;;;12.16;100.00
17309;BME280;8772;42.804;23.426;2022-07-11T00:53:57;94681.13;;;12.09;100.00
17309;BME280;8772;42.804;23.426;2022-07-11T00:56:27;94681.53;;;12.08;100.00
17309;BME280;8772;42.804;23.426;2022-07-11T00:58:56;94687.56;;;11.96;100.00
17309;BME280;8772;42.804;23.426;2022-07-11T01:01:25;94696.44;;;12.09;100.00
17309;BME280;8772;42.804;23.426;2022-07-11T01:07:14;94684.88;;;11.96;100.00
17309;BME280;8772;42.804;23.426;2022-07-11T01:09:41;94694.28;;;12.04;100.00
17309;BME280;8772;42.804;23.426;2022-07-11T01:12:09;94697.75;;;11.85;100.00
17309;BME280;8772;42.804;23.426;2022-07-11T01:14:36;94693.81;;;11.73;100.00
17309;BME280;8772;42.804;23.426;2022-07-11T01:17:05;94694.06;;;11.79;100.00
17309;BME280;8772;42.804;23.426;2022-07-11T01:19:31;94687.88;;;11.82;100.00
17309;BME280;8772;42.804;23.426;2022-07-11T01:22:02;94696.53;;;11.70;100.00
17309;BME280;8772;42.804;23.426;2022-07-11T01:24:31;94698.19;;;11.64;100.00
17309;BME280;8772;42.804;23.426;2022-07-11T01:26:58;94692.34;;;11.69;100.00
17309;BME280;8772;42.804;23.426;2022-07-11T01:29:25;94699.56;;;11.72;100.00
17309;BME280;8772;42.804;23.426;2022-07-11T01:31:52;94693.53;;;11.68;100.00
17309;BME280;8772;42.804;23.426;2022-07-11T01:34:19;94696.03;;;11.75;100.00
17309;BME280;8772;42.804;23.426;2022-07-11T01:36:47;94687.34;;;11.71;100.00
17309;BME280;8772;42.804;23.426;2022-07-11T01:39:14;94688.72;;;11.79;100.00
17309;BME280;8772;42.804;23.426;2022-07-11T01:41:42;94685.00;;;11.73;100.00
17309;BME280;8772;42.804;23.426;2022-07-11T01:44:09;94686.34;;;11.81;100.00
17309;BME280;8772;42.804;23.426;2022-07-11T01:46:36;94679.31;;;11.87;100.00
17309;BME280;8772;42.804;23.426;2022-07-11T01:49:03;94671.63;;;11.89;100.00
17309;BME280;8772;42.804;23.426;2022-07-11T01:51:31;94680.69;;;11.95;100.00
17309;BME280;8772;42.804;23.426;2022-07-11T01:53:58;94674.13;;;11.80;100.00
17309;BME280;8772;42.804;23.426;2022-07-11T01:56:24;94680.84;;;11.88;100.00
17309;BME280;8772;42.804;23.426;2022-07-11T01:58:54;94681.53;;;11.92;100.00
17309;BME280;8772;42.804;23.426;2022-07-11T02:01:21;94688.53;;;11.86;100.00
17309;BME280;8772;42.804;23.426;2022-07-11T02:03:48;94692.25;;;11.92;100.00
17309;BME280;8772;42.804;23.426;2022-07-11T02:06:14;94679.75;;;11.85;100.00
17309;BME280;8772;42.804;23.426;2022-07-11T02:08:42;94683.19;;;11.86;100.00
17309;BME280;8772;42.804;23.426;2022-07-11T02:11:08;94691.56;;;11.88;100.00
17309;BME280;8772;42.804;23.426;2022-07-11T02:13:35;94696.38;;;11.77;100.00
17309;BME280;8772;42.804;23.426;2022-07-11T02:16:05;94686.34;;;11.81;100.00
17309;BME280;8772;42.804;23.426;2022-07-11T02:18:32;94693.63;;;11.80;100.00
17309;BME280;8772;42.804;23.426;2022-07-11T02:21:00;94698.25;;;11.80;100.00
17309;BME280;8772;42.804;23.426;2022-07-11T02:23:27;94697.91;;;11.78;100.00
17309;BME280;8772;42.804;23.426;2022-07-11T02:25:55;94698.19;;;11.64;100.00
17309;BME280;8772;42.804;23.426;2022-07-11T02:28:22;94692.28;;;11.53;100.00
17309;BME280;8772;42.804;23.426;2022-07-11T02:30:49;94701.97;;;11.47;100.00
17309;BME280;8772;42.804;23.426;2022-07-11T02:33:18;94699.22;;;11.50;100.00
17309;BME280;8772;42.804;23.426;2022-07-11T02:35:45;94699.97;;;11.51;100.00
17309;BME280;8772;42.804;23.426;2022-07-11T02:38:12;94707.81;;;11.42;100.00
17309;BME280;8772;42.804;23.426;2022-07-11T02:40:40;94703.41;;;11.32;100.00
17309;BME280;8772;42.804;23.426;2022-07-11T02:43:07;94713.28;;;11.35;100.00
17309;BME280;8772;42.804;23.426;2022-07-11T02:45:34;94715.97;;;11.35;100.00
17309;BME280;8772;42.804;23.426;2022-07-11T02:48:02;94715.00;;;11.25;100.00
17309;BME280;8772;42.804;23.426;2022-07-11T02:50:30;94719.69;;;11.21;100.00
17309;BME280;8772;42.804;23.426;2022-07-11T02:52:58;94709.84;;;11.15;100.00
17309;BME280;8772;42.804;23.426;2022-07-11T02:55:25;94724.28;;;11.21;100.00
17309;BME280;8772;42.804;23.426;2022-07-11T02:57:52;94717.41;;;11.20;100.00
17309;BME280;8772;42.804;23.426;2022-07-11T03:00:19;94726.47;;;11.26;100.00
17309;BME280;8772;42.804;23.426;2022-07-11T03:02:46;94721.81;;;11.30;100.00
17309;BME280;8772;42.804;23.426;2022-07-11T03:05:13;94724.06;;;11.31;100.00
17309;BME280;8772;42.804;23.426;2022-07-11T03:07:41;94721.31;;;11.35;100.00
17309;BME280;8772;42.804;23.426;2022-07-11T03:10:09;94720.31;;;11.29;100.00
17309;BME280;8772;42.804;23.426;2022-07-11T03:12:36;94730.53;;;11.34;100.00
17309;BME280;8772;42.804;23.426;2022-07-11T03:15:05;94727.63;;;11.25;100.00
17309;BME280;8772;42.804;23.426;2022-07-11T03:17:32;94740.16;;;11.08;100.00
17309;BME280;8772;42.804;23.426;2022-07-11T03:19:59;94733.41;;;11.23;100.00
17309;BME280;8772;42.804;23.426;2022-07-11T03:22:27;94730.50;;;11.14;100.00
17309;BME280;8772;42.804;23.426;2022-07-11T03:24:55;94735.66;;;11.25;100.00
17309;BME280;8772;42.804;23.426;2022-07-11T03:27:22;94729.69;;;11.17;100.00
17309;BME280;8772;42.804;23.426;2022-07-11T03:29:50;94732.38;;;11.17;100.00
17309;BME280;8772;42.804;23.426;2022-07-11T03:32:17;94730.03;;;11.19;100.00
17309;BME280;8772;42.804;23.426;2022-07-11T03:34:45;94733.31;;;11.27;100.00
17309;BME280;8772;42.804;23.426;2022-07-11T03:37:33;94735.53;;;11.32;100.00
17309;BME280;8772;42.804;23.426;2022-07-11T03:40:01;94753.38;;;11.38;100.00
17309;BME280;8772;42.804;23.426;2022-07-11T03:42:28;94748.38;;;11.40;100.00
17309;BME280;8772;42.804;23.426;2022-07-11T03:44:55;94758.19;;;11.47;100.00
17309;BME280;8772;42.804;23.426;2022-07-11T03:47:22;94758.06;;;11.54;100.00
17309;BME280;8772;42.804;23.426;2022-07-11T03:49:49;94761.09;;;11.56;100.00
17309;BME280;8772;42.804;23.426;2022-07-11T03:52:16;94778.69;;;11.57;100.00
17309;BME280;8772;42.804;23.426;2022-07-11T03:54:43;94777.84;;;11.60;100.00
17309;BME280;8772;42.804;23.426;2022-07-11T03:57:12;94773.25;;;11.41;100.00
17309;BME280;8772;42.804;23.426;2022-07-11T03:59:39;94772.13;;;11.38;100.00
17309;BME280;8772;42.804;23.426;2022-07-11T04:02:06;94784.34;;;11.39;100.00
17309;BME280;8772;42.804;23.426;2022-07-11T04:04:33;94785.78;;;11.44;100.00
17309;BME280;8772;42.804;23.426;2022-07-11T04:07:00;94778.31;;;11.35;100.00
17309;BME280;8772;42.804;23.426;2022-07-11T04:09:27;94777.47;;;11.38;100.00
17309;BME280;8772;42.804;23.426;2022-07-11T04:11:54;94782.97;;;11.51;100.00
17309;BME280;8772;42.804;23.426;2022-07-11T04:14:22;94784.91;;;11.50;100.00
17309;BME280;8772;42.804;23.426;2022-07-11T04:16:49;94790.53;;;11.56;100.00
17309;BME280;8772;42.804;23.426;2022-07-11T04:19:17;94789.41;;;11.57;100.00
17309;BME280;8772;42.804;23.426;2022-07-11T04:21:44;94790.75;;;11.65;100.00
17309;BME280;8772;42.804;23.426;2022-07-11T04:24:10;94789.81;;;11.75;100.00
17309;BME280;8772;42.804;23.426;2022-07-11T04:26:37;94794.34;;;11.78;100.00
17309;BME280;8772;42.804;23.426;2022-07-11T04:29:04;94797.91;;;11.91;100.00
17309;BME280;8772;42.804;23.426;2022-07-11T04:31:33;94798.53;;;11.98;100.00
17309;BME280;8772;42.804;23.426;2022-07-11T04:34:00;94797.53;;;12.08;100.00
17309;BME280;8772;42.804;23.426;2022-07-11T04:36:27;94802.53;;;12.26;100.00
17309;BME280;8772;42.804;23.426;2022-07-11T04:38:53;94805.09;;;12.49;100.00
17309;BME280;8772;42.804;23.426;2022-07-11T04:41:20;94810.03;;;12.66;100.00
17309;BME280;8772;42.804;23.426;2022-07-11T04:43:47;94818.72;;;12.90;100.00
17309;BME280;8772;42.804;23.426;2022-07-11T04:46:14;94810.50;;;13.13;100.00
17309;BME280;8772;42.804;23.426;2022-07-11T04:48:43;94810.81;;;13.30;100.00
17309;BME280;8772;42.804;23.426;2022-07-11T04:51:10;94812.44;;;13.56;100.00
17309;BME280;8772;42.804;23.426;2022-07-11T04:53:37;94802.72;;;13.75;100.00
17309;BME280;8772;42.804;23.426;2022-07-11T04:56:05;94810.22;;;13.96;100.00
17309;BME280;8772;42.804;23.426;2022-07-11T04:58:32;94803.81;;;14.18;100.00
17309;BME280;8772;42.804;23.426;2022-07-11T05:01:00;94798.03;;;14.32;100.00
17309;BME280;8772;42.804;23.426;2022-07-11T05:03:28;94806.88;;;14.45;100.00
17309;BME280;8772;42.804;23.426;2022-07-11T05:05:56;94811.81;;;14.59;100.00
17309;BME280;8772;42.804;23.426;2022-07-11T05:08:23;94809.22;;;14.81;100.00
17309;BME280;8772;42.804;23.426;2022-07-11T05:10:50;94804.16;;;14.95;100.00
17309;BME280;8772;42.804;23.426;2022-07-11T05:13:17;94809.66;;;15.04;100.00
17309;BME280;8772;42.804;23.426;2022-07-11T05:15:44;94809.81;;;15.22;100.00
17309;BME280;8772;42.804;23.426;2022-07-11T05:18:11;94817.16;;;15.34;100.00
17309;BME280;8772;42.804;23.426;2022-07-11T05:20:38;94813.66;;;15.46;100.00
17309;BME280;8772;42.804;23.426;2022-07-11T05:23:06;94814.28;;;15.50;100.00
17309;BME280;8772;42.804;23.426;2022-07-11T05:25:33;94805.97;;;15.57;100.00
17309;BME280;8772;42.804;23.426;2022-07-11T05:28:00;94816.06;;;15.65;100.00
17309;BME280;8772;42.804;23.426;2022-07-11T05:30:27;94817.88;;;15.68;100.00
17309;BME280;8772;42.804;23.426;2022-07-11T05:32:54;94818.72;;;15.78;100.00
17309;BME280;8772;42.804;23.426;2022-07-11T05:35:21;94817.22;;;15.77;100.00
17309;BME280;8772;42.804;23.426;2022-07-11T05:37:48;94819.28;;;15.94;100.00
17309;BME280;8772;42.804;23.426;2022-07-11T05:40:16;94822.84;;;16.13;100.00
17309;BME280;8772;42.804;23.426;2022-07-11T05:42:43;94820.34;;;16.18;100.00
17309;BME280;8772;42.804;23.426;2022-07-11T05:45:10;94835.28;;;16.32;100.00
17309;BME280;8772;42.804;23.426;2022-07-11T05:47:37;94828.38;;;16.31;100.00
17309;BME280;8772;42.804;23.426;2022-07-11T05:50:05;94830.53;;;16.36;100.00
17309;BME280;8772;42.804;23.426;2022-07-11T05:52:32;94824.41;;;16.44;100.00
17309;BME280;8772;42.804;23.426;2022-07-11T05:54:59;94828.50;;;16.49;100.00
17309;BME280;8772;42.804;23.426;2022-07-11T05:57:27;94822.06;;;16.55;100.00
17309;BME280;8772;42.804;23.426;2022-07-11T05:59:55;94822.00;;;16.68;100.00
17309;BME280;8772;42.804;23.426;2022-07-11T06:02:22;94818.84;;;16.69;100.00
17309;BME280;8772;42.804;23.426;2022-07-11T06:04:49;94823.09;;;16.79;100.00
17309;BME280;8772;42.804;23.426;2022-07-11T06:07:16;94824.75;;;16.86;100.00
17309;BME280;8772;42.804;23.426;2022-07-11T06:09:57;94830.50;;;16.97;100.00
17309;BME280;8772;42.804;23.426;2022-07-11T06:12:23;94827.22;;;17.02;100.00
17309;BME280;8772;42.804;23.426;2022-07-11T06:14:52;94831.44;;;17.12;100.00
17309;BME280;8772;42.804;23.426;2022-07-11T06:17:19;94832.69;;;17.20;100.00
17309;BME280;8772;42.804;23.426;2022-07-11T06:19:45;94826.22;;;17.26;100.00
17309;BME280;8772;42.804;23.426;2022-07-11T06:22:12;94832.09;;;17.34;100.00
17309;BME280;8772;42.804;23.426;2022-07-11T06:24:40;94837.88;;;17.45;100.00
17309;BME280;8772;42.804;23.426;2022-07-11T06:27:06;94837.59;;;17.52;99.39
17309;BME280;8772;42.804;23.426;2022-07-11T06:29:33;94832.78;;;17.56;94.56
17309;BME280;8772;42.804;23.426;2022-07-11T06:32:02;94834.28;;;17.57;91.37
17309;BME280;8772;42.804;23.426;2022-07-11T06:34:29;94825.72;;;17.58;90.07
17309;BME280;8772;42.804;23.426;2022-07-11T06:36:57;94823.91;;;17.64;95.48
17309;BME280;8772;42.804;23.426;2022-07-11T06:39:24;94831.56;;;17.74;88.23
17309;BME280;8772;42.804;23.426;2022-07-11T06:41:51;94821.66;;;17.80;92.50
17309;BME280;8772;42.804;23.426;2022-07-11T06:44:18;94828.59;;;17.81;85.17
17309;BME280;8772;42.804;23.426;2022-07-11T06:46:45;94830.66;;;17.86;85.47
17309;BME280;8772;42.804;23.426;2022-07-11T06:49:13;94827.38;;;17.82;81.15
17309;BME280;8772;42.804;23.426;2022-07-11T06:51:40;94827.38;;;17.82;79.45
17309;BME280;8772;42.804;23.426;2022-07-11T06:54:07;94830.66;;;17.86;80.26
17309;BME280;8772;42.804;23.426;2022-07-11T06:56:34;94828.28;;;17.88;73.84
17309;BME280;8772;42.804;23.426;2022-07-11T06:59:01;94841.34;;;17.90;72.88
17309;BME280;8772;42.804;23.426;2022-07-11T07:01:27;94842.41;;;17.83;72.06
17309;BME280;8772;42.804;23.426;2022-07-11T07:03:54;94848.56;;;17.84;70.26
17309;BME280;8772;42.804;23.426;2022-07-11T07:06:23;94846.03;;;17.89;69.46
17309;BME280;8772;42.804;23.426;2022-07-11T07:08:50;94840.00;;;17.85;64.24
17309;BME280;8772;42.804;23.426;2022-07-11T07:11:16;94840.00;;;17.94;58.16
17309;BME280;8772;42.804;23.426;2022-07-11T07:13:44;94833.25;;;17.99;59.69
17309;BME280;8772;42.804;23.426;2022-07-11T07:16:13;94832.03;;;18.00;58.11
17309;BME280;8772;42.804;23.426;2022-07-11T07:18:40;94844.94;;;18.14;59.23
17309;BME280;8772;42.804;23.426;2022-07-11T07:21:08;94842.09;;;18.17;56.73
17309;BME280;8772;42.804;23.426;2022-07-11T07:23:37;94849.78;;;18.28;54.07
17309;BME280;8772;42.804;23.426;2022-07-11T07:26:04;94847.81;;;18.28;53.97
17309;BME280;8772;42.804;23.426;2022-07-11T07:28:30;94847.22;;;18.33;51.93
17309;BME280;8772;42.804;23.426;2022-07-11T07:30:58;94845.72;;;18.32;50.32
17309;BME280;8772;42.804;23.426;2022-07-11T07:33:25;94825.25;;;18.40;52.69
17309;BME280;8772;42.804;23.426;2022-07-11T07:35:52;94845.06;;;18.46;51.18
17309;BME280;8772;42.804;23.426;2022-07-11T07:38:18;94840.56;;;18.43;50.45
17309;BME280;8772;42.804;23.426;2022-07-11T07:40:47;94818.59;;;18.50;49.79
17309;BME280;8772;42.804;23.426;2022-07-11T07:43:14;94825.34;;;18.55;51.63
17309;BME280;8772;42.804;23.426;2022-07-11T07:45:40;94826.09;;;18.55;49.54
17309;BME280;8772;42.804;23.426;2022-07-11T07:48:07;94825.44;;;18.69;47.89
17309;BME280;8772;42.804;23.426;2022-07-11T07:50:34;94834.34;;;18.70;47.48
17309;BME280;8772;42.804;23.426;2022-07-11T07:53:01;94815.38;;;18.70;46.87
17309;BME280;8772;42.804;23.426;2022-07-11T07:55:28;94825.44;;;18.78;49.94
17309;BME280;8772;42.804;23.426;2022-07-11T07:57:56;94827.78;;;18.85;48.06
17309;BME280;8772;42.804;23.426;2022-07-11T08:00:23;94822.34;;;18.94;49.41
17309;BME280;8772;42.804;23.426;2022-07-11T08:03:08;94813.22;;;19.15;50.02
17309;BME280;8772;42.804;23.426;2022-07-11T08:05:35;94815.66;;;19.13;46.13
17309;BME280;8772;42.804;23.426;2022-07-11T08:08:02;94823.16;;;19.18;47.21
17309;BME280;8772;42.804;23.426;2022-07-11T08:10:29;94819.78;;;19.32;48.68
17309;BME280;8772;42.804;23.426;2022-07-11T08:12:58;94814.47;;;19.38;49.66
17309;BME280;8772;42.804;23.426;2022-07-11T08:15:25;94828.25;;;19.49;48.93
17309;BME280;8772;42.804;23.426;2022-07-11T08:17:51;94833.63;;;19.58;48.58
17309;BME280;8772;42.804;23.426;2022-07-11T08:20:19;94822.69;;;19.67;47.33
17309;BME280;8772;42.804;23.426;2022-07-11T08:22:46;94827.69;;;19.68;47.31
17309;BME280;8772;42.804;23.426;2022-07-11T08:25:13;94830.78;;;19.76;44.95
17309;BME280;8772;42.804;23.426;2022-07-11T08:27:40;94844.19;;;19.79;44.77
17309;BME280;8772;42.804;23.426;2022-07-11T08:30:09;94829.03;;;19.87;46.10
17309;BME280;8772;42.804;23.426;2022-07-11T08:32:38;94817.25;;;19.90;44.41
17309;BME280;8772;42.804;23.426;2022-07-11T08:35:06;94813.88;;;19.95;44.41
17309;BME280;8772;42.804;23.426;2022-07-11T08:37:33;94807.66;;;20.04;44.89
17309;BME280;8772;42.804;23.426;2022-07-11T08:40:01;94821.44;;;20.14;44.03
17309;BME280;8772;42.804;23.426;2022-07-11T08:42:29;94822.97;;;20.30;42.05
17309;BME280;8772;42.804;23.426;2022-07-11T08:44:57;94813.25;;;20.38;42.34
17309;BME280;8772;42.804;23.426;2022-07-11T08:47:25;94817.72;;;20.41;41.98
17309;BME280;8772;42.804;23.426;2022-07-11T08:49:53;94817.06;;;20.46;44.31
17309;BME280;8772;42.804;23.426;2022-07-11T08:52:20;94815.19;;;20.52;41.64
17309;BME280;8772;42.804;23.426;2022-07-11T08:54:48;94810.69;;;20.63;42.93
17309;BME280;8772;42.804;23.426;2022-07-11T08:57:15;94818.09;;;20.92;42.34
17309;BME280;8772;42.804;23.426;2022-07-11T08:59:42;94811.69;;;21.09;42.72
17309;BME280;8772;42.804;23.426;2022-07-11T09:02:11;94824.41;;;21.18;41.59
17309;BME280;8772;42.804;23.426;2022-07-11T09:04:40;94830.81;;;21.15;41.77
17309;BME280;8772;42.804;23.426;2022-07-11T09:07:07;94813.88;;;21.25;41.68
17309;BME280;8772;42.804;23.426;2022-07-11T09:09:34;94814.50;;;21.35;40.99
17309;BME280;8772;42.804;23.426;2022-07-11T09:12:01;94826.50;;;21.43;42.55
17309;BME280;8772;42.804;23.426;2022-07-11T09:14:29;94821.47;;;21.56;42.65
17309;BME280;8772;42.804;23.426;2022-07-11T09:16:57;94828.03;;;21.64;41.78
17309;BME280;8772;42.804;23.426;2022-07-11T09:19:26;94822.00;;;21.60;41.92
17309;BME280;8772;42.804;23.426;2022-07-11T09:21:59;94816.06;;;21.76;42.27
17309;BME280;8772;42.804;23.426;2022-07-11T09:24:57;94816.31;;;21.98;41.92
17309;BME280;8772;42.804;23.426;2022-07-11T09:27:44;94824.81;;;22.05;41.16
17309;BME280;8772;42.804;23.426;2022-07-11T09:30:30;94820.69;;;22.15;40.13
17309;BME280;8772;42.804;23.426;2022-07-11T09:32:59;94823.34;;;22.30;40.93
17309;BME280;8772;42.804;23.426;2022-07-11T09:35:27;94814.91;;;22.28;42.97
17309;BME280;8772;42.804;23.426;2022-07-11T09:37:57;94810.13;;;22.43;41.74
17309;BME280;8772;42.804;23.426;2022-07-11T09:40:24;94813.22;;;22.55;39.87
17309;BME280;8772;42.804;23.426;2022-07-11T09:42:53;94819.44;;;22.61;40.28
17309;BME280;8772;42.804;23.426;2022-07-11T09:45:22;94802.94;;;22.70;41.11
17309;BME280;8772;42.804;23.426;2022-07-11T09:47:50;94820.44;;;22.89;41.13
17309;BME280;8772;42.804;23.426;2022-07-11T09:50:18;94824.88;;;23.12;40.50
17309;BME280;8772;42.804;23.426;2022-07-11T09:53:04;94823.94;;;23.21;38.66
17309;BME280;8772;42.804;23.426;2022-07-11T09:55:32;94812.38;;;23.42;38.82
17309;BME280;8772;42.804;23.426;2022-07-11T09:58:03;94831.16;;;23.29;39.36
17309;BME280;8772;42.804;23.426;2022-07-11T10:00:31;94809.81;;;23.28;41.18
17309;BME280;8772;42.804;23.426;2022-07-11T10:02:59;94823.50;;;23.33;39.51
17309;BME280;8772;42.804;23.426;2022-07-11T10:05:26;94821.75;;;23.30;38.19
17309;BME280;8772;42.804;23.426;2022-07-11T10:07:53;94827.16;;;23.25;39.50
17309;BME280;8772;42.804;23.426;2022-07-11T10:10:22;94818.56;;;23.37;40.17
17309;BME280;8772;42.804;23.426;2022-07-11T10:12:50;94817.16;;;23.53;38.94
17309;BME280;8772;42.804;23.426;2022-07-11T10:15:19;94837.13;;;23.75;41.55
17309;BME280;8772;42.804;23.426;2022-07-11T10:18:00;94817.53;;;23.82;40.62
17309;BME280;8772;42.804;23.426;2022-07-11T10:20:35;94828.28;;;23.91;39.51
17309;BME280;8772;42.804;23.426;2022-07-11T10:23:10;94829.53;;;23.90;38.65
17309;BME280;8772;42.804;23.426;2022-07-11T10:25:45;94828.47;;;23.82;37.68
17309;BME280;8772;42.804;23.426;2022-07-11T10:28:24;94824.78;;;23.85;39.28
17309;BME280;8772;42.804;23.426;2022-07-11T10:30:53;94819.81;;;23.84;38.68
17309;BME280;8772;42.804;23.426;2022-07-11T10:33:21;94817.34;;;23.86;40.00
17309;BME280;8772;42.804;23.426;2022-07-11T10:35:50;94811.16;;;23.96;37.86
17309;BME280;8772;42.804;23.426;2022-07-11T10:38:17;94823.06;;;23.93;37.62
17309;BME280;8772;42.804;23.426;2022-07-11T10:40:51;94826.88;;;23.59;39.05
17309;BME280;8772;42.804;23.426;2022-07-11T10:43:37;94814.06;;;23.76;39.89
17309;BME280;8772;42.804;23.426;2022-07-11T10:46:07;94818.31;;;23.83;40.71
17309;BME280;8772;42.804;23.426;2022-07-11T10:48:35;94839.88;;;23.75;37.81
17309;BME280;8772;42.804;23.426;2022-07-11T10:51:13;94817.88;;;23.95;38.51
17309;BME280;8772;42.804;23.426;2022-07-11T10:53:46;94822.34;;;24.04;39.57
17309;BME280;8772;42.804;23.426;2022-07-11T10:56:43;94815.94;;;24.12;38.80
17309;BME280;8772;42.804;23.426;2022-07-11T10:59:14;94820.19;;;24.19;37.89
17309;BME280;8772;42.804;23.426;2022-07-11T11:02:03;94807.56;;;24.43;38.73
17309;BME280;8772;42.804;23.426;2022-07-11T11:04:50;94824.69;;;24.33;37.82
17309;BME280;8772;42.804;23.426;2022-07-11T11:07:30;94833.59;;;24.22;37.12
17309;BME280;8772;42.804;23.426;2022-07-11T11:09:58;94823.13;;;24.04;40.00
17309;BME280;8772;42.804;23.426;2022-07-11T11:13:10;94810.97;;;24.11;38.49
17309;BME280;8772;42.804;23.426;2022-07-11T11:15:41;94813.78;;;24.38;39.00
17309;BME280;8772;42.804;23.426;2022-07-11T11:18:30;94813.81;;;24.60;37.48
17309;BME280;8772;42.804;23.426;2022-07-11T11:21:23;94808.88;;;24.81;36.99
17309;BME280;8772;42.804;23.426;2022-07-11T11:24:07;94812.84;;;24.85;36.60
17309;BME280;8772;42.804;23.426;2022-07-11T11:26:49;94806.38;;;24.72;38.13
17309;BME280;8772;42.804;23.426;2022-07-11T11:29:25;94803.88;;;24.57;36.12
17309;BME280;8772;42.804;23.426;2022-07-11T11:31:57;94808.63;;;24.68;37.87
17309;BME280;8772;42.804;23.426;2022-07-11T11:34:25;94806.38;;;24.66;37.95
17309;BME280;8772;42.804;23.426;2022-07-11T11:36:57;94802.88;;;24.93;37.91
17309;BME280;8772;42.804;23.426;2022-07-11T11:39:27;94812.84;;;25.07;37.27
17309;BME280;8772;42.804;23.426;2022-07-11T11:42:00;94805.88;;;25.06;36.54
17309;BME280;8772;42.804;23.426;2022-07-11T11:44:29;94821.03;;;25.01;37.80
17309;BME280;8772;42.804;23.426;2022-07-11T11:46:56;94815.09;;;25.19;37.59
17309;BME280;8772;42.804;23.426;2022-07-11T11:49:23;94810.13;;;25.23;37.41
17309;BME280;8772;42.804;23.426;2022-07-11T11:51:54;94814.31;;;25.19;36.37
17309;BME280;8772;42.804;23.426;2022-07-11T11:54:22;94810.88;;;25.24;36.68
17309;BME280;8772;42.804;23.426;2022-07-11T11:56:49;94803.13;;;25.33;36.91
17309;BME280;8772;42.804;23.426;2022-07-11T11:59:16;94818.31;;;25.29;35.90
17309;BME280;8772;42.804;23.426;2022-07-11T12:01:46;94818.81;;;25.22;36.42
17309;BME280;8772;42.804;23.426;2022-07-11T12:04:14;94822.78;;;25.32;35.98
17309;BME280;8772;42.804;23.426;2022-07-11T12:06:43;94820.28;;;25.34;34.71
17309;BME280;8772;42.804;23.426;2022-07-11T12:09:13;94809.31;;;25.45;36.74
17309;BME280;8772;42.804;23.426;2022-07-11T12:11:43;94823.00;;;25.56;35.82
17309;BME280;8772;42.804;23.426;2022-07-11T12:14:12;94814.06;;;25.50;35.98
17309;BME280;8772;42.804;23.426;2022-07-11T12:16:41;94817.28;;;25.54;36.11
17309;BME280;8772;42.804;23.426;2022-07-11T12:19:11;94812.25;;;25.69;35.80
17309;BME280;8772;42.804;23.426;2022-07-11T12:21:41;94811.00;;;25.64;35.64
17309;BME280;8772;42.804;23.426;2022-07-11T12:24:11;94822.69;;;25.76;34.70
17309;BME280;8772;42.804;23.426;2022-07-11T12:26:40;94810.75;;;25.68;34.49
17309;BME280;8772;42.804;23.426;2022-07-11T12:29:11;94811.00;;;25.70;35.97
17309;BME280;8772;42.804;23.426;2022-07-11T12:31:46;94804.28;;;25.60;33.87
17309;BME280;8772;42.804;23.426;2022-07-11T12:34:15;94809.22;;;25.78;35.33
17309;BME280;8772;42.804;23.426;2022-07-11T12:36:43;94809.25;;;25.72;35.51
17309;BME280;8772;42.804;23.426;2022-07-11T12:39:21;94811.75;;;25.65;34.82
17309;BME280;8772;42.804;23.426;2022-07-11T12:41:50;94802.78;;;25.64;36.05
17309;BME280;8772;42.804;23.426;2022-07-11T12:44:21;94804.25;;;25.71;36.26
17309;BME280;8772;42.804;23.426;2022-07-11T12:47:05;94801.00;;;25.89;34.25
17309;BME280;8772;42.804;23.426;2022-07-11T12:49:34;94799.75;;;25.79;34.15
17309;BME280;8772;42.804;23.426;2022-07-11T12:52:01;94815.22;;;25.71;34.94
17309;BME280;8772;42.804;23.426;2022-07-11T12:54:29;94793.31;;;25.71;34.15
17309;BME280;8772;42.804;23.426;2022-07-11T12:56:57;94803.31;;;25.63;35.26
17309;BME280;8772;42.804;23.426;2022-07-11T12:59:25;94810.31;;;25.53;34.68
17309;BME280;8772;42.804;23.426;2022-07-11T13:02:00;94802.88;;;25.37;35.90
17309;BME280;8772;42.804;23.426;2022-07-11T13:04:35;94807.09;;;25.38;35.29
17309;BME280;8772;42.804;23.426;2022-07-11T13:07:25;94807.56;;;25.47;35.93
17309;BME280;8772;42.804;23.426;2022-07-11T13:10:11;94813.84;;;25.26;36.52